My Meet Scores
Kylie Ziegler, Naperville Gymnastics Club - MyMeetScores.com
Top100 | Top Teams | Upcoming Meets | Completed Meets | Latest | Add Scores | Help| Support | Bookmark and Share

Kylie Ziegler, Naperville Gymnastics Club
Personal Bests
LevelVault BarsBeamFloorAA
XG9.3009.625 9.5009.45037.300
XP9.4008.600 9.6009.15036.325
XS9.5259.725 9.6259.17537.850
Meet Scores
Date Meet Team Session Level Division Vault Bars Beam Floor AA
2022-05-05 Region 5 Xcel Silver - Diamond Championships Naperville Gymnastics Club 02 XP Jr B 8.975 11 8.600 14T 9.600 1 9.150 18T 36.325 8
2022-04-08 Illinois Xcel State Championships 2022 Naperville Gymnastics Club 03B XP Sr A 9.400 15 8.200 23T 9.225 3 8.850 23T 35.675 13
2022-03-04 2022 Flip'r S.O.U.L. Invitational Naperville Gymnastics Club 4 XP JR A 9.400 2= 8.450 5 9.350 1 8.950 7 36.150 3
2022-02-04 Big Chill Naperville Gymnastics Club 3 XP Jr 9.325 2 8.525 15 8.750 13 8.850 15 35.450 14
2022-01-14 2022 Bravo Classic Naperville Gymnastics Club 02A XP Sr 8.700 10T 8.500 5 9.275 2 8.600 11 35.075 7
2021-12-03 Flipstar's Home for the Holidays Naperville Gymnastics Club 3 XP All 9.000 4 8.400 4 9.225 1 8.900 4 35.525 4
2021-05-12 Region 5 Xcel Gold, Platinum & Diamond Champi Naperville Gymnastics Club 10A XG Jr C2 8.850 19T 9.250 14T 7.650 29 8.900 21 34.650 27
2021-03-18 Level 5 & Xcel Gold State Naperville Gymnastics Club 8 XG Sr A 9.175 13 9.250 6T 9.500 3 9.150 12T 37.075 5
2021-03-05 NGC Flip'r S.O.U.L. Invitational Naperville Gymnastics Club 11 XG JR B 9.250 2 9.400 4 8.900 5T 8.850 10 36.400 3
2021-02-19 BIG Classic 2021 Naperville Gymnastics Club 10A XP Senior B 8.750 11 7.350 14 8.150 10T 8.775 10 33.025 13
2020-12-04 Flipstar's Home for the Holidays Naperville Gymnastics Club 23 XG All 8.450 6 8.375 10 9.400 1 8.350 11 34.575 4
2020-03-06 2020 Flip'r Invitational Naperville Gymnastics Club 8 XG JR 12 9.200 4 9.425 8 8.975 9 9.450 8T 37.050 5
2020-02-21 Kinetic Classic Naperville Gymnastics Club 10 XG Middle 9.300 26T 9.625 20T 9.425 7 8.950 61T 37.300 16T
2020-02-07 SCGA Classic Naperville Gymnastics Club 2 XG Jr B 9.025 3 9.225 3 9.050 2 8.925 7 36.225 4
2020-01-10 Leenda's Island Adventure Naperville Gymnastics Club GG8 XG 11 Year Ol 8.150 10T 9.550 5 9.075 2 8.800 10 35.575 4
2019-12-07 Home for the Holidays 2019 Naperville Gymnastics Club 5 XG Middle 8.500 9 8.800 8 8.300 10 8.700 9 34.300 9
2019-04-13 2019 Illinois XB, XS State Championships Naperville Gymnastics Club 5 XS Jr D 9.525 6 9.725 9T 9.525 7T 9.075 23T 37.850 9
2019-03-08 Lucky Invite Naperville Gymnastics Club B10 XS Jr B 9.100 11 9.450 9 9.625 3T 9.175 13 37.350 7
2019-03-01 NGCD Academy's 2019 Flip'r Invitational Naperville Gymnastics Club 8 XS Jr B 9.250 9T 9.150 11 9.200 8 9.175 9 36.775 10
2019-02-09 Ground Hog Day Classic Naperville Gymnastics Club 1 XS CH 8-10 8.950 3 9.200 4 9.000 1 9.025 2 36.175 1
Get your scores on
a t-shirt, pin, or hoodie